Time;durP1;ratioP1;P1;durP2;ratioP2;P2;SDS_P1;SDS_P2;PMS_P1;PMS_P2;Temp;Humidity;BMP_temperature;BMP_pressure;BME280_temperature;BME280_humidity;BME280_pressure;Samples;Min_cycle;Max_cycle;Signal;HPM_P1;HPM_P2
2022/07/01 04:47:57;;;;;;;;;;;;;;;;;;;;;
2022/07/01 04:51:01;;;;;;;;;;;;;;;;;;;;;
2022/07/01 04:54:11;;;;;;;;;;;;;;;;;;;;;
2022/07/01 04:56:53;;;;;;;24.17;19.42;;;16.20;99.10;;;;;;6217208;23;20068;-92
2022/07/01 04:59:22;;;;;;;23.60;19.67;;;16.20;99.10;;;;;;6216367;23;20039;-89
2022/07/01 05:02:05;;;;;;;20.67;17.50;;;16.20;99.00;;;;;;6214915;23;20453;-87
2022/07/01 05:07:36;;;;;;;20.52;17.92;;;16.20;99.00;;;;;;6200036;23;20079;-88
2022/07/01 05:10:37;;;;;;;20.35;17.17;;;16.20;99.00;;;;;;6216453;23;20481;-88
2022/07/01 05:13:14;;;;;;;22.48;18.33;;;16.20;99.00;;;;;;6191426;23;20088;-88
2022/07/01 05:16:00;;;;;;;19.10;16.35;;;16.20;98.90;;;;;;6216326;23;20418;-88
2022/07/01 05:25:15;;;;;;;;;;;;;;;;;;;;;
2022/07/01 05:28:04;;;;;;;20.85;17.45;;;16.20;99.20;;;;;;6242654;23;19989;-88
2022/07/01 05:30:44;;;;;;;21.13;16.95;;;16.20;98.80;;;;;;6242886;23;20013;-89
2022/07/01 05:33:16;;;;;;;21.42;17.65;;;16.20;98.80;;;;;;6216585;23;20005;-87
2022/07/01 05:35:50;;;;;;;19.92;16.65;;;16.30;98.80;;;;;;6216504;23;20023;-87
2022/07/01 05:38:55;;;;;;;;;;;;;;;;;;;;;
2022/07/01 05:41:55;;;;;;;22.00;17.00;;;16.30;98.70;;;;;;6217625;23;20080;-88
2022/07/01 05:45:00;;;;;;;20.55;16.35;;;16.30;98.70;;;;;;6185688;23;20027;-88
2022/07/01 05:47:35;;;;;;;21.60;17.98;;;16.30;98.70;;;;;;6196082;23;20004;-89
2022/07/01 05:50:22;;;;;;;;;;;;;;;;;;;;;
2022/07/01 05:53:08;;;;;;;19.60;15.65;;;16.40;98.80;;;;;;6216504;23;20498;-88
2022/07/01 05:56:25;;;;;;;;;;;;;;;;;;;;;
2022/07/01 06:01:55;;;;;;;;;;;;;;;;;;;;;
2022/07/01 06:04:35;;;;;;;;;;;;;;;;;;;;;
2022/07/01 06:25:08;;;;;;;;;;;;;;;;;;;;;
2022/07/01 07:38:58;;;;;;;;;;;;;;;;;;;;;
2022/07/01 07:59:23;;;;;;;;;;;;;;;;;;;;;
2022/07/01 08:08:53;;;;;;;;;;;;;;;;;;;;;
2022/07/01 08:12:31;;;;;;;;;;;;;;;;;;;;;
2022/07/01 08:15:20;;;;;;;11.98;10.07;;;18.00;96.90;;;;;;6006755;23;20016;-90
2022/07/01 08:21:40;;;;;;;11.80;9.38;;;18.10;96.70;;;;;;5985520;23;20041;-90
2022/07/01 08:24:42;;;;;;;;;;;;;;;;;;;;;
2022/07/01 08:27:58;;;;;;;;;;;;;;;;;;;;;
2022/07/01 08:31:59;;;;;;;;;;;;;;;;;;;;;
2022/07/01 08:41:47;;;;;;;;;;;;;;;;;;;;;
2022/07/01 08:48:27;;;;;;;5.40;3.55;;;18.60;95.70;;;;;;6196443;23;20004;-91
2022/07/01 08:54:43;;;;;;;7.30;4.28;;;18.80;95.80;;;;;;6152358;23;20004;-91
2022/07/01 09:01:05;;;;;;;;;;;;;;;;;;;;;
2022/07/01 09:07:33;;;;;;;;;;;;;;;;;;;;;
2022/07/01 09:13:52;;;;;;;;;;;;;;;;;;;;;
2022/07/01 09:16:55;;;;;;;2.95;1.65;;;19.00;94.20;;;;;;6214112;23;19990;-89
2022/07/01 09:26:29;;;;;;;;;;;;;;;;;;;;;
2022/07/01 09:29:48;;;;;;;;;;;;;;;;;;;;;
2022/07/01 09:33:07;;;;;;;;;;;;;;;;;;;;;
2022/07/01 09:52:40;;;;;;;;;;;;;;;;;;;;;
2022/07/01 09:55:25;;;;;;;2.65;1.67;;;19.50;93.30;;;;;;6187076;23;20080;-93
2022/07/01 09:58:32;;;;;;;;;;;;;;;;;;;;;
2022/07/01 10:01:31;;;;;;;;;;;;;;;;;;;;;
2022/07/01 10:04:40;;;;;;;1.73;1.15;;;19.60;92.50;;;;;;6149683;23;20087;-92
2022/07/01 10:08:15;;;;;;;;;;;;;;;;;;;;;
2022/07/01 10:11:52;;;;;;;1.88;1.10;;;19.70;91.70;;;;;;6112614;23;20093;-91
2022/07/01 10:15:00;;;;;;;;;;;;;;;;;;;;;
2022/07/01 10:18:00;;;;;;;2.75;1.48;;;19.60;91.90;;;;;;6185899;23;20089;-91
2022/07/01 10:20:55;;;;;;;1.70;1.10;;;19.70;92.00;;;;;;6122609;23;20013;-90
2022/07/01 10:23:53;;;;;;;;;;;;;;;;;;;;;
2022/07/01 10:26:48;;;;;;;3.58;1.17;;;19.70;92.00;;;;;;6186896;23;20380;-90
2022/07/01 10:29:45;;;;;;;2.55;1.02;;;19.70;92.10;;;;;;6185291;23;20005;-90
2022/07/01 10:33:00;;;;;;;;;;;;;;;;;;;;;
2022/07/01 10:36:22;;;;;;;;;;;;;;;;;;;;;
2022/07/01 10:39:17;;;;;;;2.55;1.02;;;20.00;91.60;;;;;;6150941;23;20080;-90
2022/07/01 10:52:33;;;;;;;1.40;0.80;;;19.90;91.20;;;;;;6146301;23;20021;-92
2022/07/01 10:55:45;;;;;;;2.63;1.48;;;20.00;91.30;;;;;;6130985;23;20478;-91
2022/07/01 10:59:00;;;;;;;4.53;3.05;;;19.90;90.90;;;;;;6131717;23;20021;-91
2022/07/01 11:01:37;;;;;;;3.47;2.05;;;20.00;90.70;;;;;;6057409;23;20003;-90
2022/07/01 11:04:44;;;;;;;;;;;;;;;;;;;;;
2022/07/01 11:11:06;;;;;;;;;;;;;;;;;;;;;
2022/07/01 11:14:31;;;;;;;3.22;1.02;;;20.10;90.60;;;;;;6181646;23;20002;-90
2022/07/01 11:20:59;;;;;;;;;;;;;;;;;;;;;
2022/07/01 11:27:08;;;;;;;3.83;1.38;;;20.00;90.00;;;;;;6116189;23;20060;-82
2022/07/01 11:29:34;;;;;;;3.13;0.88;;;20.10;90.00;;;;;;6129018;23;20013;-84
2022/07/01 11:32:06;;;;;;;3.47;1.17;;;20.10;90.10;;;;;;6131164;23;20009;-83
2022/07/01 11:34:37;;;;;;;2.65;1.13;;;20.20;89.70;;;;;;6131170;23;20508;-84
2022/07/01 11:40:15;;;;;;;2.85;0.93;;;20.30;89.10;;;;;;6157020;23;20048;-82
2022/07/01 11:42:41;;;;;;;4.55;1.05;;;20.40;89.00;;;;;;6130471;23;20002;-83
2022/07/01 11:45:10;;;;;;;2.40;0.82;;;20.50;88.30;;;;;;6130757;23;20013;-83
2022/07/01 11:47:36;;;;;;;2.42;0.80;;;20.60;88.30;;;;;;6130957;23;20106;-83
2022/07/01 11:50:04;;;;;;;1.30;0.65;;;20.60;88.10;;;;;;6138947;23;20025;-83
2022/07/01 11:52:33;;;;;;;2.63;0.90;;;20.70;87.60;;;;;;6160274;23;20012;-83
2022/07/01 11:54:58;;;;;;;2.03;0.70;;;20.70;87.70;;;;;;6160465;23;20332;-84
2022/07/01 11:57:28;;;;;;;2.15;0.70;;;20.80;87.80;;;;;;6185155;23;20001;-83
2022/07/01 11:59:56;;;;;;;2.65;0.45;;;20.80;87.70;;;;;;6184661;23;20032;-84
2022/07/01 12:02:24;;;;;;;2.53;1.00;;;20.80;87.60;;;;;;6186460;23;20327;-83
2022/07/01 12:04:52;;;;;;;6.13;3.60;;;20.90;87.10;;;;;;6160510;23;20025;-83
2022/07/01 12:07:25;;;;;;;4.85;2.70;;;20.90;86.90;;;;;;6184912;23;20051;-84
2022/07/01 12:10:03;;;;;;;3.67;1.58;;;20.90;87.10;;;;;;6186608;23;20012;-84
2022/07/01 12:12:40;;;;;;;2.17;1.17;;;21.00;87.20;;;;;;6162676;23;20458;-83
2022/07/01 12:15:14;;;;;;;2.85;0.85;;;21.00;87.10;;;;;;6184315;23;20419;-84
2022/07/01 12:17:39;;;;;;;1.67;0.80;;;21.00;87.20;;;;;;6183992;23;20011;-83
2022/07/01 12:20:06;;;;;;;5.90;1.00;;;21.00;86.40;;;;;;6184638;23;20040;-83
2022/07/01 12:22:34;;;;;;;2.20;0.73;;;21.10;86.10;;;;;;6160069;23;20092;-84
2022/07/01 12:25:12;;;;;;;2.95;0.80;;;21.00;85.90;;;;;;6185631;23;20004;-84
2022/07/01 12:27:43;;;;;;;3.22;0.80;;;21.10;86.00;;;;;;6185415;23;20009;-85
2022/07/01 12:30:13;;;;;;;;;;;21.00;84.90;;;;;;6161941;23;20005;-87
2022/07/01 12:32:39;;;;;;;2.88;0.88;;;21.10;85.00;;;;;;6185293;23;19904;-86
2022/07/01 12:35:42;;;;;;;0.98;0.70;;;21.10;85.30;;;;;;6184949;23;20061;-84
2022/07/01 12:38:05;;;;;;;1.25;0.65;;;21.10;85.10;;;;;;6184484;23;20036;-85
2022/07/01 12:40:49;;;;;;;2.08;0.82;;;21.20;85.00;;;;;;6186080;23;20008;-87
2022/07/01 12:43:37;;;;;;;3.65;0.95;;;21.30;84.50;;;;;;6185355;23;20009;-84
2022/07/01 12:46:05;;;;;;;1.67;0.80;;;21.30;84.30;;;;;;6185529;23;20041;-85
2022/07/01 12:48:48;;;;;;;3.20;1.17;;;21.30;84.60;;;;;;6184477;23;19997;-85
2022/07/01 12:51:15;;;;;;;3.67;1.10;;;21.40;84.50;;;;;;6184617;23;20111;-85
2022/07/01 12:53:41;;;;;;;2.15;1.00;;;21.40;84.50;;;;;;6186278;23;20025;-85
2022/07/01 12:56:07;;;;;;;1.33;0.63;;;21.40;84.50;;;;;;6160289;23;20005;-85
2022/07/01 12:58:33;;;;;;;2.13;0.80;;;21.40;84.40;;;;;;6185583;23;20005;-84
2022/07/01 13:00:59;;;;;;;1.83;0.80;;;21.50;84.40;;;;;;6185764;23;20001;-85
2022/07/01 13:03:27;;;;;;;1.35;0.90;;;21.50;84.10;;;;;;6185565;23;20012;-87
2022/07/01 13:05:54;;;;;;;1.73;0.90;;;21.50;83.80;;;;;;6185443;23;20055;-84
2022/07/01 13:08:21;;;;;;;1.88;0.90;;;21.50;83.90;;;;;;6186732;23;20008;-84
2022/07/01 13:10:47;;;;;;;2.22;0.90;;;21.50;84.10;;;;;;6204253;23;20013;-84
2022/07/01 13:13:20;;;;;;;2.55;0.68;;;21.50;83.80;;;;;;6210554;23;20028;-85
2022/07/01 13:15:48;;;;;;;4.40;1.90;;;21.50;83.20;;;;;;6209606;23;19997;-89
2022/07/01 13:18:24;;;;;;;8.23;4.93;;;21.60;82.90;;;;;;6211002;23;20200;-85
2022/07/01 13:20:55;;;;;;;4.93;3.28;;;21.70;82.90;;;;;;6209536;23;20005;-87
2022/07/01 13:23:21;;;;;;;2.90;1.92;;;21.70;83.20;;;;;;6199689;23;20005;-85
2022/07/01 13:25:47;;;;;;;2.30;1.58;;;21.70;83.50;;;;;;6185500;23;20008;-85
2022/07/01 13:28:15;;;;;;;1.35;0.98;;;21.80;83.60;;;;;;6184649;23;20324;-85
2022/07/01 13:30:43;;;;;;;1.90;0.90;;;21.80;83.80;;;;;;6184576;23;20005;-85
2022/07/01 13:33:09;;;;;;;1.83;0.80;;;21.90;83.50;;;;;;6185543;23;20020;-86
2022/07/01 13:35:48;;;;;;;2.53;0.80;;;22.00;84.10;;;;;;6184833;23;20322;-86
2022/07/01 13:38:16;;;;;;;2.80;1.02;;;22.00;83.10;;;;;;6161990;23;20454;-85
2022/07/01 13:40:42;;;;;;;3.22;0.82;;;22.00;82.60;;;;;;6159710;23;20020;-85
2022/07/01 13:43:08;;;;;;;3.00;0.80;;;22.00;82.00;;;;;;6184100;23;20332;-86
2022/07/01 13:45:44;;;;;;;;;;;;;;;;;;;;;
2022/07/01 13:48:13;;;;;;;1.90;0.88;;;21.90;81.50;;;;;;6185105;23;20498;-84
2022/07/01 13:50:43;;;;;;;2.53;0.90;;;21.90;82.00;;;;;;6174004;23;20024;-86
2022/07/01 13:53:17;;;;;;;1.58;0.63;;;21.90;82.30;;;;;;6158768;23;20005;-87
2022/07/01 13:55:51;;;;;;;2.35;0.77;;;21.90;81.70;;;;;;6159278;23;19997;-87
2022/07/01 13:58:24;;;;;;;1.65;0.60;;;22.00;81.70;;;;;;6135568;23;20005;-86
2022/07/01 14:00:50;;;;;;;2.08;0.50;;;22.00;81.30;;;;;;6159280;23;20005;-86
2022/07/01 14:03:21;;;;;;;1.33;0.50;;;22.00;80.90;;;;;;6158873;23;20012;-87
2022/07/01 14:06:07;;;;;;;2.30;0.55;;;22.10;80.40;;;;;;6159440;23;20403;-85
2022/07/01 14:08:40;;;;;;;1.60;0.60;;;22.10;78.90;;;;;;6158279;23;20289;-88
2022/07/01 14:11:11;;;;;;;1.38;0.40;;;22.20;78.80;;;;;;6158579;23;20015;-86
2022/07/01 14:14:04;;;;;;;1.38;0.60;;;22.10;78.70;;;;;;6135082;23;20013;-87
2022/07/01 14:16:55;;;;;;;1.33;0.50;;;22.10;79.00;;;;;;6158352;23;20008;-87
2022/07/01 14:19:21;;;;;;;2.38;0.43;;;22.00;79.10;;;;;;6159223;23;20001;-86
2022/07/01 14:21:54;;;;;;;2.53;0.70;;;22.00;79.30;;;;;;6159014;23;20001;-86
2022/07/01 14:24:23;;;;;;;1.67;0.70;;;22.00;78.90;;;;;;6185505;23;20001;-86
2022/07/01 14:27:06;;;;;;;2.35;0.60;;;22.00;78.50;;;;;;6158356;23;20088;-86
2022/07/01 14:29:32;;;;;;;1.77;0.68;;;22.00;78.60;;;;;;6133896;23;20048;-90
2022/07/01 14:32:05;;;;;;;3.28;0.77;;;22.00;79.70;;;;;;6158457;23;20005;-85
2022/07/01 14:35:29;;;;;;;1.20;0.77;;;22.00;79.00;;;;;;6159198;23;19997;-87
2022/07/01 14:38:51;;;;;;;;;;;;;;;;;;;;;
2022/07/01 14:41:50;;;;;;;1.63;0.60;;;22.10;78.20;;;;;;6145398;23;20091;-92
2022/07/01 14:44:57;;;;;;;;;;;;;;;;;;;;;
2022/07/01 14:48:05;;;;;;;;;;;;;;;;;;;;;
2022/07/01 14:51:30;;;;;;;1.25;0.45;;;22.20;77.60;;;;;;6174051;23;20099;-87
2022/07/01 14:54:34;;;;;;;1.90;0.50;;;22.20;77.00;;;;;;6155017;23;20096;-87
2022/07/01 14:57:39;;;;;;;1.55;0.60;;;22.20;77.20;;;;;;6133815;23;20009;-88
2022/07/01 15:01:09;;;;;;;1.42;0.50;;;22.20;77.50;;;;;;6159639;23;20009;-87
2022/07/01 15:03:48;;;;;;;;;;;;;;;;;;;;;
2022/07/01 15:06:44;;;;;;;;;;;;;;;;;;;;;
2022/07/01 15:09:21;;;;;;;1.80;0.60;;;22.00;77.60;;;;;;6189883;23;20076;-87
2022/07/01 15:11:55;;;;;;;3.15;0.70;;;21.90;77.80;;;;;;6139722;23;20055;-87
2022/07/01 15:14:54;;;;;;;;;;;;;;;;;;;;;
2022/07/01 15:17:33;;;;;;;2.10;0.95;;;21.80;77.40;;;;;;6188945;23;20080;-86
2022/07/01 15:20:27;;;;;;;;;;;;;;;;;;;;;
2022/07/01 15:23:15;;;;;;;2.05;0.80;;;21.60;77.90;;;;;;6214495;23;19992;-87
2022/07/01 15:26:34;;;;;;;;;;;;;;;;;;;;;
